Time;durP1;ratioP1;P1;durP2;ratioP2;P2;SDS_P1;SDS_P2;PMS_P1;PMS_P2;Temp;Humidity;BMP_temperature;BMP_pressure;BME280_temperature;BME280_humidity;BME280_pressure;Samples;Min_cycle;Max_cycle;Signal;HPM_P1;HPM_P2
2023/12/13 00:00:20;;;;;;;;;;;;;;;5.41;100.00;98702.62;105603;1256;59815;-60
2023/12/13 00:02:47;;;;;;;;;;;;;;;5.37;100.00;98697.03;105464;1256;60068;-60
2023/12/13 00:05:15;;;;;;;;;;;;;;;5.43;100.00;98700.69;105534;1257;72574;-60
2023/12/13 00:07:42;;;;;;;;;;;;;;;5.41;100.00;98704.12;105571;1257;69234;-60
2023/12/13 00:10:10;;;;;;;;;;;;;;;5.36;100.00;98708.45;105631;1257;72910;-60
2023/12/13 00:12:37;;;;;;;;;;;;;;;5.35;100.00;98709.17;105630;1257;61110;-60
2023/12/13 00:15:07;;;;;;;;;;;;;;;5.33;100.00;98711.61;105425;1262;59932;-60
2023/12/13 00:17:35;;;;;;;;;;;;;;;5.36;100.00;98712.35;105630;1257;72506;-60
2023/12/13 00:20:05;;;;;;;;;;;;;;;5.50;100.00;98710.23;105644;1257;68463;-62
2023/12/13 00:22:33;;;;;;;;;;;;;;;5.51;100.00;98715.36;105598;1259;72893;-59
2023/12/13 00:25:00;;;;;;;;;;;;;;;5.47;100.00;98716.88;105590;1257;61046;-60
2023/12/13 00:27:28;;;;;;;;;;;;;;;5.48;100.00;98712.34;105499;1256;59947;-59
2023/12/13 00:29:56;;;;;;;;;;;;;;;5.50;100.00;98716.32;105566;1257;71858;-59
2023/12/13 00:32:23;;;;;;;;;;;;;;;5.46;100.00;98715.06;105622;1257;68494;-61
2023/12/13 00:34:51;;;;;;;;;;;;;;;5.43;100.00;98707.46;105590;1257;73316;-59
2023/12/13 00:37:19;;;;;;;;;;;;;;;5.56;100.00;98705.11;105588;1258;60934;-59
2023/12/13 00:39:46;;;;;;;;;;;;;;;5.58;100.00;98700.41;105583;1255;60017;-59
2023/12/13 00:42:14;;;;;;;;;;;;;;;5.60;100.00;98699.27;105470;1261;73079;-59
2023/12/13 00:44:42;;;;;;;;;;;;;;;5.51;100.00;98697.79;105623;1260;69035;-60
2023/12/13 00:47:09;;;;;;;;;;;;;;;5.50;100.00;98700.88;105311;1263;72846;-60
2023/12/13 00:49:37;;;;;;;;;;;;;;;5.43;100.00;98699.33;105176;1254;61529;-60
2023/12/13 00:52:05;;;;;;;;;;;;;;;5.38;100.00;98701.62;105509;1260;59540;-60
2023/12/13 00:54:32;;;;;;;;;;;;;;;5.46;100.00;98703.14;105615;1260;73143;-60
2023/12/13 00:57:00;;;;;;;;;;;;;;;5.48;100.00;98702.91;105588;1254;67945;-60
2023/12/13 00:59:27;;;;;;;;;;;;;;;5.54;100.00;98697.52;105244;1261;72826;-60
2023/12/13 01:01:55;;;;;;;;;;;;;;;5.54;100.00;98696.29;105317;1260;59915;-59
2023/12/13 01:04:23;;;;;;;;;;;;;;;5.72;100.00;98694.29;105463;1254;60487;-61
2023/12/13 01:06:51;;;;;;;;;;;;;;;5.67;100.00;98689.26;105208;1263;72098;-62
2023/12/13 01:09:18;;;;;;;;;;;;;;;5.62;100.00;98681.46;105537;1254;68914;-66
2023/12/13 01:11:46;;;;;;;;;;;;;;;5.61;100.00;98678.20;105624;1255;71757;-61
2023/12/13 01:14:13;;;;;;;;;;;;;;;5.56;100.00;98687.13;105618;1259;59961;-64
2023/12/13 01:16:41;;;;;;;;;;;;;;;5.59;100.00;98688.39;105597;1254;59673;-59
2023/12/13 01:19:08;;;;;;;;;;;;;;;5.62;100.00;98692.21;105588;1254;72037;-59
2023/12/13 01:21:36;;;;;;;;;;;;;;;5.57;100.00;98700.39;105635;1260;67679;-62
2023/12/13 01:24:04;;;;;;;;;;;;;;;5.48;100.00;98695.77;105609;1257;73352;-61
2023/12/13 01:26:31;;;;;;;;;;;;;;;5.59;100.00;98698.57;105587;1254;60502;-62
2023/12/13 01:28:59;;;;;;;;;;;;;;;5.39;100.00;98694.88;105599;1254;60480;-59
2023/12/13 01:31:27;;;;;;;;;;;;;;;5.52;100.00;98695.27;105674;1256;73188;-59
2023/12/13 01:33:55;;;;;;;;;;;;;;;5.52;100.00;98695.67;105586;1260;68690;-59
2023/12/13 01:36:22;;;;;;;;;;;;;;;5.52;100.00;98700.64;105569;1256;72097;-59
2023/12/13 01:38:50;;;;;;;;;;;;;;;5.42;100.00;98698.92;105601;1254;60523;-62
2023/12/13 01:41:17;;;;;;;;;;;;;;;5.34;100.00;98701.98;105588;1255;60371;-60
2023/12/13 01:43:45;;;;;;;;;;;;;;;5.25;100.00;98699.90;105583;1254;74545;-59
2023/12/13 01:46:13;;;;;;;;;;;;;;;5.22;100.00;98698.09;105568;1254;68866;-59
2023/12/13 01:48:41;;;;;;;;;;;;;;;5.28;100.00;98695.39;105630;1260;72804;-60
2023/12/13 01:51:08;;;;;;;;;;;;;;;5.27;100.00;98698.80;105465;1255;61075;-60
2023/12/13 01:53:36;;;;;;;;;;;;;;;5.37;100.00;98699.21;105599;1254;60566;-60
2023/12/13 01:56:04;;;;;;;;;;;;;;;5.44;100.00;98700.13;105505;1254;73073;-59
2023/12/13 01:58:32;;;;;;;;;;;;;;;5.51;100.00;98698.22;105636;1259;67310;-62
2023/12/13 02:01:00;;;;;;;;;;;;;;;5.49;100.00;98702.34;105621;1261;72837;-59
2023/12/13 02:03:27;;;;;;;;;;;;;;;5.40;100.00;98698.04;105569;1254;60421;-66
2023/12/13 02:05:55;;;;;;;;;;;;;;;5.40;100.00;98697.99;105579;1254;60536;-60
2023/12/13 02:08:22;;;;;;;;;;;;;;;5.47;100.00;98693.52;105516;1260;73892;-60
2023/12/13 02:10:50;;;;;;;;;;;;;;;5.38;100.00;98697.52;105609;1254;67959;-59
2023/12/13 02:13:18;;;;;;;;;;;;;;;5.33;100.00;98704.10;105263;1260;72808;-60
2023/12/13 02:15:46;;;;;;;;;;;;;;;5.39;100.00;98702.39;105585;1254;60919;-60
2023/12/13 02:18:16;;;;;;;;;;;;;;;5.42;100.00;98708.45;105580;1254;60495;-61
2023/12/13 02:20:44;;;;;;;;;;;;;;;5.31;100.00;98709.17;105550;1260;74489;-59
2023/12/13 02:23:12;;;;;;;;;;;;;;;5.21;100.00;98711.54;105573;1260;67793;-61
2023/12/13 02:25:44;;;;;;;;;;;;;;;5.21;100.00;98713.63;105560;1260;72852;-62
2023/12/13 02:28:12;;;;;;;;;;;;;;;5.24;100.00;98715.39;105639;1254;60532;-61
2023/12/13 02:30:40;;;;;;;;;;;;;;;5.36;100.00;98713.30;105496;1260;60499;-61
2023/12/13 02:33:11;;;;;;;;;;;;;;;5.51;100.00;98711.42;105418;1254;72823;-61
2023/12/13 02:35:38;;;;;;;;;;;;;;;5.50;100.00;98712.63;105647;1254;68998;-61
2023/12/13 02:38:06;;;;;;;;;;;;;;;5.56;100.00;98717.79;105574;1254;71414;-60
2023/12/13 02:40:33;;;;;;;;;;;;;;;5.68;100.00;98720.77;105582;1256;61024;-60
2023/12/13 02:43:01;;;;;;;;;;;;;;;5.54;100.00;98714.30;105630;1255;60510;-60
2023/12/13 02:45:29;;;;;;;;;;;;;;;5.65;100.00;98716.81;105669;1256;73891;-60
2023/12/13 02:47:59;;;;;;;;;;;;;;;5.71;100.00;98715.52;105580;1254;68863;-61
2023/12/13 02:50:27;;;;;;;;;;;;;;;5.77;100.00;98716.56;105651;1260;71716;-61
2023/12/13 02:52:55;;;;;;;;;;;;;;;5.80;100.00;98719.94;105580;1255;60380;-60
2023/12/13 02:55:22;;;;;;;;;;;;;;;5.94;100.00;98722.98;105613;1254;60536;-60
2023/12/13 02:57:50;;;;;;;;;;;;;;;5.96;100.00;98723.23;105595;1256;73918;-62
2023/12/13 03:00:17;;;;;;;;;;;;;;;5.94;100.00;98727.72;105611;1254;68974;-61
2023/12/13 03:02:45;;;;;;;;;;;;;;;5.90;100.00;98728.02;105508;1257;70561;-61
2023/12/13 03:05:13;;;;;;;;;;;;;;;5.97;100.00;98724.85;105328;1254;61035;-60
2023/12/13 03:07:40;;;;;;;;;;;;;;;5.91;100.00;98721.33;105589;1260;60819;-65
2023/12/13 03:10:08;;;;;;;;;;;;;;;5.83;100.00;98721.20;105660;1255;72962;-58
2023/12/13 03:12:36;;;;;;;;;;;;;;;5.89;100.00;98720.05;105439;1255;68844;-65
2023/12/13 03:15:04;;;;;;;;;;;;;;;5.84;100.00;98716.91;105356;1254;71742;-62
2023/12/13 03:17:31;;;;;;;;;;;;;;;5.86;100.00;98720.82;105275;1254;61525;-69
2023/12/13 03:19:59;;;;;;;;;;;;;;;5.82;100.00;98726.23;105299;1256;60544;-62
2023/12/13 03:22:27;;;;;;;;;;;;;;;5.95;100.00;98718.98;105473;1254;74633;-67
2023/12/13 03:24:58;;;;;;;;;;;;;;;5.98;100.00;98719.02;105650;1254;68849;-64
2023/12/13 03:27:25;;;;;;;;;;;;;;;5.99;100.00;98713.84;105616;1256;73307;-63
2023/12/13 03:29:53;;;;;;;;;;;;;;;5.92;100.00;98707.65;105645;1260;60483;-68
2023/12/13 03:32:20;;;;;;;;;;;;;;;5.87;100.00;98715.84;105634;1254;60487;-61
2023/12/13 03:34:48;;;;;;;;;;;;;;;5.85;100.00;98718.47;105681;1254;72814;-61
2023/12/13 03:37:15;;;;;;;;;;;;;;;5.86;100.00;98724.87;105625;1254;67966;-70
2023/12/13 03:39:43;;;;;;;;;;;;;;;5.76;100.00;98727.59;105650;1255;73124;-61
2023/12/13 03:42:10;;;;;;;;;;;;;;;5.74;100.00;98722.86;105618;1254;61553;-62
2023/12/13 03:44:38;;;;;;;;;;;;;;;5.85;100.00;98717.02;105592;1254;60430;-62
2023/12/13 03:47:05;;;;;;;;;;;;;;;5.86;100.00;98712.17;105584;1254;73986;-62
2023/12/13 03:49:33;;;;;;;;;;;;;;;5.84;100.00;98713.27;105356;1254;68849;-60
2023/12/13 03:52:01;;;;;;;;;;;;;;;5.87;100.00;98716.04;105564;1255;71643;-60
2023/12/13 03:54:28;;;;;;;;;;;;;;;5.85;100.00;98712.77;105591;1260;60426;-60
2023/12/13 03:56:56;;;;;;;;;;;;;;;5.86;100.00;98713.95;105569;1260;60436;-59
2023/12/13 03:59:23;;;;;;;;;;;;;;;5.81;100.00;98713.28;105620;1254;73404;-60
2023/12/13 04:01:51;;;;;;;;;;;;;;;5.88;100.00;98709.43;105593;1254;69155;-59
2023/12/13 04:04:18;;;;;;;;;;;;;;;5.80;100.00;98707.69;105600;1261;71600;-59
2023/12/13 04:06:46;;;;;;;;;;;;;;;5.73;100.00;98711.18;105695;1254;61064;-60
2023/12/13 04:09:14;;;;;;;;;;;;;;;5.73;100.00;98709.38;105465;1254;60439;-62
2023/12/13 04:11:41;;;;;;;;;;;;;;;5.90;100.00;98716.14;105602;1254;71994;-63
2023/12/13 04:14:09;;;;;;;;;;;;;;;5.89;100.00;98718.45;105613;1258;67782;-59
2023/12/13 04:16:36;;;;;;;;;;;;;;;5.87;100.00;98714.83;105599;1254;72925;-60
2023/12/13 04:19:04;;;;;;;;;;;;;;;5.89;100.00;98711.65;105474;1260;60949;-59
2023/12/13 04:21:32;;;;;;;;;;;;;;;5.91;100.00;98710.94;105615;1256;60526;-59
2023/12/13 04:24:00;;;;;;;;;;;;;;;5.90;100.00;98708.95;105608;1258;73055;-61
2023/12/13 04:26:28;;;;;;;;;;;;;;;5.86;100.00;98713.25;105530;1254;68939;-61
2023/12/13 04:28:55;;;;;;;;;;;;;;;5.80;100.00;98715.02;105507;1258;72742;-59
2023/12/13 04:31:23;;;;;;;;;;;;;;;5.82;100.00;98714.36;105563;1255;61053;-60
2023/12/13 04:33:51;;;;;;;;;;;;;;;5.77;100.00;98713.22;105632;1254;60512;-61
2023/12/13 04:36:18;;;;;;;;;;;;;;;5.78;100.00;98711.54;105599;1254;73891;-62
2023/12/13 04:38:46;;;;;;;;;;;;;;;5.77;100.00;98711.89;105601;1258;67782;-61
2023/12/13 04:41:13;;;;;;;;;;;;;;;5.80;100.00;98718.60;105625;1256;71793;-62
2023/12/13 04:43:41;;;;;;;;;;;;;;;5.79;100.00;98719.71;105632;1255;60856;-59
2023/12/13 04:46:08;;;;;;;;;;;;;;;5.75;100.00;98726.89;105691;1256;60502;-60
2023/12/13 04:48:36;;;;;;;;;;;;;;;5.74;100.00;98726.97;105269;1263;73936;-59
2023/12/13 04:51:04;;;;;;;;;;;;;;;5.69;100.00;98724.34;105609;1255;68925;-61
2023/12/13 04:53:32;;;;;;;;;;;;;;;5.65;100.00;98721.92;105526;1262;71629;-59
2023/12/13 04:55:59;;;;;;;;;;;;;;;5.64;100.00;98721.77;105638;1254;61174;-60
2023/12/13 04:58:28;;;;;;;;;;;;;;;5.71;100.00;98725.70;105585;1254;60499;-61
2023/12/13 05:00:56;;;;;;;;;;;;;;;5.69;100.00;98726.73;105661;1259;74076;-61
2023/12/13 05:03:26;;;;;;;;;;;;;;;5.67;100.00;98730.52;105659;1254;68986;-60
2023/12/13 05:05:54;;;;;;;;;;;;;;;5.77;100.00;98732.98;105659;1260;72828;-60
2023/12/13 05:08:21;;;;;;;;;;;;;;;5.85;100.00;98732.40;105615;1255;60950;-60
2023/12/13 05:10:49;;;;;;;;;;;;;;;5.83;100.00;98734.25;105604;1256;60430;-61
2023/12/13 05:13:18;;;;;;;;;;;;;;;5.77;100.00;98728.66;105594;1260;74048;-61
2023/12/13 05:15:46;;;;;;;;;;;;;;;5.72;100.00;98730.23;105689;1254;68967;-61
2023/12/13 05:18:13;;;;;;;;;;;;;;;5.82;100.00;98735.88;105593;1256;72751;-60
2023/12/13 05:20:41;;;;;;;;;;;;;;;5.86;100.00;98737.27;105647;1256;61698;-60
2023/12/13 05:23:09;;;;;;;;;;;;;;;5.81;100.00;98736.60;105260;1254;60497;-61
2023/12/13 05:25:38;;;;;;;;;;;;;;;5.74;100.00;98732.41;105520;1254;73999;-60
2023/12/13 05:28:06;;;;;;;;;;;;;;;5.84;100.00;98736.98;105613;1254;68769;-60
2023/12/13 05:30:33;;;;;;;;;;;;;;;5.87;100.00;98736.59;105623;1254;71560;-61
2023/12/13 05:33:01;;;;;;;;;;;;;;;5.92;100.00;98738.34;105612;1255;61058;-60
2023/12/13 05:35:29;;;;;;;;;;;;;;;5.96;100.00;98740.34;105458;1254;60537;-61
2023/12/13 05:37:56;;;;;;;;;;;;;;;5.89;100.00;98743.77;105604;1254;72485;-60
2023/12/13 05:40:24;;;;;;;;;;;;;;;5.88;100.00;98742.89;105618;1258;67854;-61
2023/12/13 05:42:51;;;;;;;;;;;;;;;5.88;100.00;98741.30;105588;1255;71975;-61
2023/12/13 05:45:19;;;;;;;;;;;;;;;5.85;100.00;98743.34;105625;1254;60884;-63
2023/12/13 05:47:46;;;;;;;;;;;;;;;5.81;100.00;98743.16;105468;1254;60543;-61
2023/12/13 05:50:15;;;;;;;;;;;;;;;5.81;100.00;98744.86;105377;1260;74550;-63
2023/12/13 05:52:44;;;;;;;;;;;;;;;5.75;100.00;98745.58;105553;1254;68895;-62
2023/12/13 05:55:11;;;;;;;;;;;;;;;5.69;100.00;98747.17;105628;1254;74979;-65
2023/12/13 05:57:39;;;;;;;;;;;;;;;5.70;100.00;98742.19;105411;1260;60899;-64
2023/12/13 06:00:19;;;;;;;;;;;;;;;5.68;100.00;98747.21;105260;1254;60686;-60
2023/12/13 06:06:09;;;;;;;;;;;;;;;6.01;100.00;98755.96;102728;1292;599302;-61
2023/12/13 06:08:36;;;;;;;;;;;;;;;6.07;100.00;98758.55;104754;1264;61071;-62
2023/12/13 06:11:04;;;;;;;;;;;;;;;6.11;100.00;98758.79;105064;1264;59859;-63
2023/12/13 06:13:32;;;;;;;;;;;;;;;6.10;100.00;98759.48;105615;1262;72366;-62
2023/12/13 06:16:00;;;;;;;;;;;;;;;6.10;100.00;98756.52;105222;1258;68074;-61
2023/12/13 06:18:27;;;;;;;;;;;;;;;6.08;100.00;98762.26;105546;1257;73344;-63
2023/12/13 06:20:55;;;;;;;;;;;;;;;6.14;100.00;98766.77;105564;1257;120202;-61
2023/12/13 06:23:23;;;;;;;;;;;;;;;6.08;100.00;98771.20;105640;1256;59252;-61
2023/12/13 06:25:51;;;;;;;;;;;;;;;6.11;100.00;98775.30;105651;1260;72257;-61
2023/12/13 06:28:18;;;;;;;;;;;;;;;5.99;100.00;98775.39;105684;1258;68530;-61
2023/12/13 06:30:46;;;;;;;;;;;;;;;6.02;100.00;98777.05;105621;1260;71702;-61
2023/12/13 06:33:15;;;;;;;;;;;;;;;6.04;100.00;98781.01;105577;1260;59843;-63
2023/12/13 06:35:43;;;;;;;;;;;;;;;6.11;100.00;98779.89;105648;1257;59911;-61
2023/12/13 06:38:10;;;;;;;;;;;;;;;6.12;100.00;98782.62;105656;1257;73060;-61
2023/12/13 06:40:39;;;;;;;;;;;;;;;6.21;100.00;98786.85;105634;1260;67864;-62
2023/12/13 06:43:07;;;;;;;;;;;;;;;6.23;100.00;98785.02;105557;1256;72772;-64
2023/12/13 06:45:34;;;;;;;;;;;;;;;6.19;100.00;98789.70;105493;1263;59717;-61
2023/12/13 06:48:02;;;;;;;;;;;;;;;6.11;100.00;98787.08;105644;1256;61203;-62
2023/12/13 06:50:30;;;;;;;;;;;;;;;6.14;100.00;98792.17;105687;1258;73760;-62
2023/12/13 06:52:57;;;;;;;;;;;;;;;6.29;100.00;98791.71;105618;1257;68950;-62
2023/12/13 06:55:25;;;;;;;;;;;;;;;6.26;100.00;98793.75;105614;1258;72783;-61
2023/12/13 06:57:53;;;;;;;;;;;;;;;6.17;100.00;98790.36;105636;1257;61020;-61
2023/12/13 07:00:21;;;;;;;;;;;;;;;6.19;100.00;98791.84;105625;1260;59647;-62
2023/12/13 07:02:49;;;;;;;;;;;;;;;6.23;100.00;98789.39;105591;1258;71863;-63
2023/12/13 07:05:17;;;;;;;;;;;;;;;6.19;100.00;98787.79;105587;1256;68933;-62
2023/12/13 07:07:46;;;;;;;;;;;;;;;6.23;100.00;98789.02;105486;1260;72902;-62
2023/12/13 07:10:15;;;;;;;;;;;;;;;6.19;100.00;98785.23;105587;1258;60895;-61
2023/12/13 07:12:43;;;;;;;;;;;;;;;6.09;100.00;98782.38;105612;1257;59849;-62
2023/12/13 07:15:10;;;;;;;;;;;;;;;6.12;100.00;98781.34;105601;1260;73074;-63
2023/12/13 07:17:39;;;;;;;;;;;;;;;6.18;100.00;98778.19;105698;1258;68537;-62
2023/12/13 07:20:07;;;;;;;;;;;;;;;6.32;100.00;98771.60;105298;1261;73295;-61
2023/12/13 07:22:35;;;;;;;;;;;;;;;6.43;100.00;98767.35;105614;1257;60900;-61
2023/12/13 07:25:06;;;;;;;;;;;;;;;6.42;100.00;98766.53;105267;1257;59774;-62
2023/12/13 07:27:34;;;;;;;;;;;;;;;6.37;100.00;98764.06;105651;1261;72879;-62
2023/12/13 07:30:03;;;;;;;;;;;;;;;6.37;100.00;98762.35;105316;1257;68590;-63
2023/12/13 07:32:33;;;;;;;;;;;;;;;6.52;100.00;98769.22;105534;1261;71451;-64
2023/12/13 07:35:01;;;;;;;;;;;;;;;6.52;100.00;98772.85;105617;1257;60919;-62
2023/12/13 07:37:29;;;;;;;;;;;;;;;6.57;100.00;98778.89;105655;1257;60480;-63
2023/12/13 07:39:56;;;;;;;;;;;;;;;6.60;100.00;98779.77;105492;1261;73486;-62
2023/12/13 07:42:24;;;;;;;;;;;;;;;6.56;100.00;98779.30;105352;1257;68636;-63
2023/12/13 07:44:52;;;;;;;;;;;;;;;6.59;100.00;98780.25;105244;1257;72681;-61
2023/12/13 07:47:19;;;;;;;;;;;;;;;6.65;100.00;98777.82;105346;1257;61074;-62
2023/12/13 07:49:47;;;;;;;;;;;;;;;6.56;100.00;98774.35;105253;1263;59777;-63
2023/12/13 07:52:14;;;;;;;;;;;;;;;6.53;100.00;98775.31;105384;1263;72243;-61
2023/12/13 07:54:42;;;;;;;;;;;;;;;6.65;100.00;98773.33;105472;1257;68536;-63
2023/12/13 07:57:10;;;;;;;;;;;;;;;6.60;100.00;98773.86;105598;1260;73172;-61
2023/12/13 07:59:37;;;;;;;;;;;;;;;6.65;100.00;98775.42;105577;1257;63339;-62
2023/12/13 08:02:05;;;;;;;;;;;;;;;6.71;100.00;98769.11;105592;1257;59918;-62
2023/12/13 08:04:32;;;;;;;;;;;;;;;6.61;100.00;98769.98;105426;1257;71864;-62
2023/12/13 08:07:00;;;;;;;;;;;;;;;6.69;100.00;98772.52;105483;1258;68531;-62
2023/12/13 08:09:28;;;;;;;;;;;;;;;6.73;100.00;98774.67;105590;1258;72774;-61
2023/12/13 08:11:55;;;;;;;;;;;;;;;6.66;100.00;98776.98;105564;1262;59626;-61
2023/12/13 08:14:26;;;;;;;;;;;;;;;6.77;100.00;98782.93;105419;1257;59733;-62
2023/12/13 08:16:54;;;;;;;;;;;;;;;6.78;100.00;98782.90;105596;1257;73182;-62
2023/12/13 08:19:22;;;;;;;;;;;;;;;6.76;100.00;98781.15;105542;1257;68826;-63
2023/12/13 08:21:49;;;;;;;;;;;;;;;6.75;100.00;98782.25;105560;1257;72716;-62
2023/12/13 08:24:17;;;;;;;;;;;;;;;6.68;100.00;98782.86;105571;1257;60254;-61
2023/12/13 08:26:45;;;;;;;;;;;;;;;6.84;100.00;98783.51;105445;1260;59715;-62
2023/12/13 08:29:12;;;;;;;;;;;;;;;6.84;100.00;98782.65;105382;1263;73135;-62
2023/12/13 08:31:40;;;;;;;;;;;;;;;6.80;100.00;98784.73;105166;1261;68973;-62
2023/12/13 08:34:08;;;;;;;;;;;;;;;6.69;100.00;98783.79;105364;1263;72801;-62
2023/12/13 08:36:36;;;;;;;;;;;;;;;6.74;100.00;98786.46;105211;1260;61247;-62
2023/12/13 08:39:03;;;;;;;;;;;;;;;6.76;100.00;98786.60;105262;1260;59819;-66
2023/12/13 08:41:32;;;;;;;;;;;;;;;6.81;100.00;98786.30;105389;1263;73740;-63
2023/12/13 08:43:59;;;;;;;;;;;;;;;6.87;100.00;98784.52;105252;1260;68956;-64
2023/12/13 08:46:27;;;;;;;;;;;;;;;6.92;100.00;98786.48;105246;1264;71524;-65
2023/12/13 08:48:54;;;;;;;;;;;;;;;6.93;100.00;98785.10;105178;1266;59753;-62
2023/12/13 08:51:23;;;;;;;;;;;;;;;6.87;100.00;98779.97;105134;1259;59692;-63
2023/12/13 08:53:54;;;;;;;;;;;;;;;6.79;100.00;98780.44;105653;1259;73752;-62
2023/12/13 08:56:22;;;;;;;;;;;;;;;6.88;100.00;98776.02;105666;1254;69184;-62
2023/12/13 08:58:49;;;;;;;;;;;;;;;6.90;100.00;98780.43;105762;1254;73320;-66
2023/12/13 09:01:17;;;;;;;;;;;;;;;6.82;100.00;98775.19;105777;1254;60135;-62
2023/12/13 09:03:50;;;;;;;;;;;;;;;6.80;100.00;98775.33;105908;1254;59805;-61
2023/12/13 09:06:18;;;;;;;;;;;;;;;6.79;100.00;98775.11;105687;1254;73267;-63
2023/12/13 09:08:45;;;;;;;;;;;;;;;6.81;100.00;98780.52;105901;1257;67231;-63
2023/12/13 09:11:13;;;;;;;;;;;;;;;6.87;100.00;98776.71;105911;1254;72894;-64
2023/12/13 09:13:40;;;;;;;;;;;;;;;6.86;100.00;98769.22;105903;1256;59780;-64
2023/12/13 09:16:08;;;;;;;;;;;;;;;6.95;100.00;98771.30;105706;1258;59611;-64
2023/12/13 09:18:36;;;;;;;;;;;;;;;7.02;100.00;98770.00;105849;1254;73459;-62
2023/12/13 09:21:03;;;;;;;;;;;;;;;7.00;100.00;98768.53;105868;1254;68923;-62
2023/12/13 09:23:35;;;;;;;;;;;;;;;6.97;100.00;98766.42;105737;1257;73411;-63
2023/12/13 09:26:05;;;;;;;;;;;;;;;6.91;100.00;98764.69;105852;1254;61160;-62
2023/12/13 09:28:36;;;;;;;;;;;;;;;6.98;100.00;98761.78;105827;1254;60430;-65
2023/12/13 09:31:04;;;;;;;;;;;;;;;6.92;100.00;98756.48;105919;1257;73114;-62
2023/12/13 09:33:31;;;;;;;;;;;;;;;6.96;100.00;98755.84;105875;1252;68950;-62
2023/12/13 09:35:59;;;;;;;;;;;;;;;6.95;100.00;98757.39;105869;1254;72790;-64
2023/12/13 09:38:26;;;;;;;;;;;;;;;6.90;100.00;98752.48;105885;1253;60979;-65
2023/12/13 09:40:54;;;;;;;;;;;;;;;7.00;100.00;98750.50;105914;1251;60006;-63
2023/12/13 09:43:22;;;;;;;;;;;;;;;7.03;100.00;98744.23;105835;1256;73704;-63
2023/12/13 09:45:50;;;;;;;;;;;;;;;7.02;100.00;98743.48;105682;1254;68814;-62
2023/12/13 09:48:24;;;;;;;;;;;;;;;7.06;100.00;98741.97;105709;1254;70659;-63
2023/12/13 09:50:53;;;;;;;;;;;;;;;7.14;100.00;98737.20;105684;1259;60593;-62
2023/12/13 09:53:21;;;;;;;;;;;;;;;7.15;100.00;98738.11;105725;1259;59879;-62
2023/12/13 09:55:49;;;;;;;;;;;;;;;7.41;99.77;98735.34;105791;1260;73243;-65
2023/12/13 09:58:17;;;;;;;;;;;;;;;7.57;98.66;98732.42;105760;1254;68975;-62
2023/12/13 10:00:45;;;;;;;;;;;;;;;7.51;98.32;98730.58;105784;1254;72721;-62
2023/12/13 10:03:13;;;;;;;;;;;;;;;7.48;98.34;98737.81;105823;1254;59705;-64
2023/12/13 10:05:40;;;;;;;;;;;;;;;7.60;98.51;98736.05;105724;1254;59663;-62
2023/12/13 10:08:11;;;;;;;;;;;;;;;7.52;98.69;98735.92;105735;1259;73174;-62
2023/12/13 10:10:39;;;;;;;;;;;;;;;7.52;98.34;98732.11;105662;1254;68711;-64
2023/12/13 10:13:09;;;;;;;;;;;;;;;7.49;98.21;98723.65;105838;1253;71474;-61
2023/12/13 10:15:37;;;;;;;;;;;;;;;7.42;98.91;98725.84;105837;1253;61251;-62
2023/12/13 10:18:05;;;;;;;;;;;;;;;7.43;99.55;98723.71;105793;1254;60568;-65
2023/12/13 10:20:34;;;;;;;;;;;;;;;7.41;99.79;98716.70;105811;1258;74497;-64
2023/12/13 10:23:05;;;;;;;;;;;;;;;7.44;99.58;98710.38;105855;1254;68611;-63
2023/12/13 10:25:33;;;;;;;;;;;;;;;7.47;99.18;98708.58;105612;1257;72724;-62
2023/12/13 10:28:02;;;;;;;;;;;;;;;7.46;98.89;98710.82;105771;1253;61036;-64
2023/12/13 10:30:32;;;;;;;;;;;;;;;7.45;99.05;98707.06;105827;1254;60631;-63
2023/12/13 10:33:00;;;;;;;;;;;;;;;7.50;98.78;98707.32;105639;1259;73996;-62
2023/12/13 10:35:27;;;;;;;;;;;;;;;7.50;98.30;98709.98;105811;1254;68840;-64
2023/12/13 10:37:55;;;;;;;;;;;;;;;7.52;97.88;98706.23;105795;1254;71744;-64
2023/12/13 10:40:23;;;;;;;;;;;;;;;7.75;96.92;98705.60;105678;1258;60681;-60
2023/12/13 10:42:54;;;;;;;;;;;;;;;7.77;96.72;98709.04;105741;1258;60331;-60
2023/12/13 10:45:22;;;;;;;;;;;;;;;7.84;96.48;98704.86;105808;1253;73939;-64
2023/12/13 10:47:50;;;;;;;;;;;;;;;7.84;95.71;98701.55;105602;1254;67390;-64
2023/12/13 10:50:18;;;;;;;;;;;;;;;7.94;94.98;98699.11;105679;1254;72813;-61
2023/12/13 10:52:46;;;;;;;;;;;;;;;7.95;95.21;98699.34;105594;1254;60944;-61
2023/12/13 10:55:15;;;;;;;;;;;;;;;8.07;94.96;98694.44;105684;1254;60601;-61
2023/12/13 10:57:43;;;;;;;;;;;;;;;7.99;94.49;98693.32;105828;1258;73861;-62
2023/12/13 11:00:12;;;;;;;;;;;;;;;7.99;94.31;98694.71;105819;1256;67568;-70
2023/12/13 11:02:52;;;;;;;;;;;;;;;8.04;94.11;98685.98;105843;1257;71852;-63
2023/12/13 11:05:19;;;;;;;;;;;;;;;8.07;92.80;98684.02;105675;1259;60591;-61
2023/12/13 11:07:47;;;;;;;;;;;;;;;8.03;92.79;98685.64;105805;1254;60498;-62
2023/12/13 11:10:15;;;;;;;;;;;;;;;7.95;92.85;98689.40;105824;1254;73875;-61
2023/12/13 11:12:46;;;;;;;;;;;;;;;7.99;93.12;98695.14;105667;1254;68822;-62
2023/12/13 11:15:14;;;;;;;;;;;;;;;7.96;92.55;98698.10;105502;1262;72711;-63
2023/12/13 11:17:46;;;;;;;;;;;;;;;7.91;92.36;98701.60;105843;1259;60505;-61
2023/12/13 11:20:14;;;;;;;;;;;;;;;7.80;92.90;98698.16;105796;1254;60522;-60
2023/12/13 11:22:44;;;;;;;;;;;;;;;7.83;92.99;98691.92;105789;1257;73891;-60
2023/12/13 11:25:12;;;;;;;;;;;;;;;7.88;92.54;98681.59;105882;1254;68546;-61
2023/12/13 11:27:53;;;;;;;;;;;;;;;7.90;91.81;98690.16;105820;1254;71425;-60
2023/12/13 11:30:21;;;;;;;;;;;;;;;7.89;91.57;98698.44;105841;1254;61056;-61
2023/12/13 11:32:49;;;;;;;;;;;;;;;7.84;91.48;98702.25;105843;1254;60533;-60
2023/12/13 11:35:17;;;;;;;;;;;;;;;7.73;92.05;98711.88;105721;1259;73903;-63
2023/12/13 11:37:49;;;;;;;;;;;;;;;7.58;92.79;98709.64;105858;1252;68661;-60
2023/12/13 11:40:18;;;;;;;;;;;;;;;7.48;93.47;98707.42;105902;1255;72739;-62
2023/12/13 11:42:47;;;;;;;;;;;;;;;7.34;93.62;98714.81;105912;1251;60488;-62
2023/12/13 11:45:17;;;;;;;;;;;;;;;7.37;93.10;98714.80;105645;1253;60617;-62
2023/12/13 11:47:45;;;;;;;;;;;;;;;7.34;92.66;98717.91;105750;1254;72635;-63
2023/12/13 11:50:13;;;;;;;;;;;;;;;7.24;93.17;98723.90;105713;1256;67585;-60
2023/12/13 11:52:42;;;;;;;;;;;;;;;7.22;93.78;98725.17;105704;1253;72796;-62
2023/12/13 11:55:09;;;;;;;;;;;;;;;7.27;93.43;98720.57;105780;1256;60536;-62
2023/12/13 11:57:49;;;;;;;;;;;;;;;7.30;93.05;98716.23;105731;1253;60619;-65
2023/12/13 12:00:18;;;;;;;;;;;;;;;7.28;92.89;98722.50;105738;1256;73187;-64
2023/12/13 12:02:46;;;;;;;;;;;;;;;7.26;92.65;98716.57;105578;1259;69062;-61
2023/12/13 12:05:13;;;;;;;;;;;;;;;7.10;93.47;98718.70;105629;1256;72938;-60
2023/12/13 12:07:41;;;;;;;;;;;;;;;7.08;93.65;98723.48;105617;1254;61034;-61
2023/12/13 12:10:10;;;;;;;;;;;;;;;7.11;93.18;98726.05;105661;1254;60510;-60
2023/12/13 12:12:38;;;;;;;;;;;;;;;7.12;93.02;98728.80;105694;1257;74057;-59
2023/12/13 12:15:06;;;;;;;;;;;;;;;7.09;92.74;98735.23;105672;1257;67594;-60
2023/12/13 12:17:35;;;;;;;;;;;;;;;7.00;93.28;98735.02;105656;1254;72721;-61
2023/12/13 12:20:03;;;;;;;;;;;;;;;6.85;94.10;98733.68;105650;1255;60933;-60
2023/12/13 12:22:33;;;;;;;;;;;;;;;6.81;94.33;98729.16;105690;1254;60561;-59
2023/12/13 12:25:01;;;;;;;;;;;;;;;6.82;94.26;98726.34;105686;1254;73703;-63
2023/12/13 12:27:29;;;;;;;;;;;;;;;6.85;93.92;98726.48;105678;1257;68673;-60
2023/12/13 12:29:57;;;;;;;;;;;;;;;6.87;93.48;98724.46;105844;1255;72712;-60
2023/12/13 12:32:24;;;;;;;;;;;;;;;6.78;93.93;98723.30;105848;1254;60459;-63
2023/12/13 12:34:52;;;;;;;;;;;;;;;6.74;93.96;98721.98;105861;1253;60453;-62
2023/12/13 12:37:20;;;;;;;;;;;;;;;6.61;94.87;98725.83;105884;1256;72970;-61
2023/12/13 12:39:48;;;;;;;;;;;;;;;6.60;94.98;98727.90;105897;1256;67152;-63
2023/12/13 12:42:16;;;;;;;;;;;;;;;6.51;95.36;98723.66;105743;1257;72811;-60
2023/12/13 12:44:44;;;;;;;;;;;;;;;6.65;94.55;98722.41;105836;1253;61093;-65